sensor_id;sensor_type;location;lat;lon;timestamp;pressure;altitude;pressure_sealevel;temperature;humidity
59315;BME280;46521;50.160;20.802;2024-03-07T00:05:50;100214.59;;;2.83;85.37
59315;BME280;46521;50.160;20.802;2024-03-07T00:15:52;100208.11;;;2.76;85.19
59315;BME280;46521;50.160;20.802;2024-03-07T00:25:54;100223.98;;;2.73;85.68
59315;BME280;46521;50.160;20.802;2024-03-07T00:35:57;100218.97;;;2.69;84.85
59315;BME280;46521;50.160;20.802;2024-03-07T00:45:58;100220.86;;;2.67;84.95
59315;BME280;46521;50.160;20.802;2024-03-07T00:56:00;100224.84;;;2.60;85.36
59315;BME280;46521;50.160;20.802;2024-03-07T01:06:03;100220.75;;;2.56;85.02
59315;BME280;46521;50.160;20.802;2024-03-07T01:16:06;100213.11;;;2.53;85.23
59315;BME280;46521;50.160;20.802;2024-03-07T01:26:07;100220.23;;;2.51;84.52
59315;BME280;46521;50.160;20.802;2024-03-07T01:36:09;100221.25;;;2.48;84.67
59315;BME280;46521;50.160;20.802;2024-03-07T01:46:12;100223.66;;;2.51;85.12
59315;BME280;46521;50.160;20.802;2024-03-07T01:56:14;100218.55;;;2.50;84.69
59315;BME280;46521;50.160;20.802;2024-03-07T02:06:17;100225.30;;;2.40;84.27
59315;BME280;46521;50.160;20.802;2024-03-07T02:16:18;100216.42;;;2.29;84.88
59315;BME280;46521;50.160;20.802;2024-03-07T02:26:21;100210.77;;;2.23;84.54
59315;BME280;46521;50.160;20.802;2024-03-07T02:36:22;100220.95;;;2.13;84.21
59315;BME280;46521;50.160;20.802;2024-03-07T02:46:25;100210.91;;;2.07;84.51
59315;BME280;46521;50.160;20.802;2024-03-07T02:56:26;100215.70;;;2.00;84.27
59315;BME280;46521;50.160;20.802;2024-03-07T03:06:28;100222.80;;;1.98;84.58
59315;BME280;46521;50.160;20.802;2024-03-07T03:16:29;100228.84;;;1.98;84.03
59315;BME280;46521;50.160;20.802;2024-03-07T03:26:31;100240.53;;;1.93;84.57
59315;BME280;46521;50.160;20.802;2024-03-07T03:36:32;100244.69;;;1.95;84.84
59315;BME280;46521;50.160;20.802;2024-03-07T03:46:34;100246.03;;;1.88;84.75
59315;BME280;46521;50.160;20.802;2024-03-07T03:56:36;100244.64;;;1.83;84.20
59315;BME280;46521;50.160;20.802;2024-03-07T04:06:38;100242.23;;;1.79;84.39
59315;BME280;46521;50.160;20.802;2024-03-07T04:16:41;100254.63;;;1.76;84.01
59315;BME280;46521;50.160;20.802;2024-03-07T04:26:42;100254.57;;;1.63;83.49
59315;BME280;46521;50.160;20.802;2024-03-07T04:36:44;100249.45;;;1.61;84.02
59315;BME280;46521;50.160;20.802;2024-03-07T04:46:46;100252.44;;;1.55;83.24
59315;BME280;46521;50.160;20.802;2024-03-07T04:56:49;100252.25;;;1.58;83.43
59315;BME280;46521;50.160;20.802;2024-03-07T05:06:51;100274.22;;;1.54;83.08
59315;BME280;46521;50.160;20.802;2024-03-07T05:16:53;100266.77;;;1.48;83.26
59315;BME280;46521;50.160;20.802;2024-03-07T05:27:06;100281.87;;;1.43;83.11
59315;BME280;46521;50.160;20.802;2024-03-07T05:37:12;100287.08;;;1.43;83.33
59315;BME280;46521;50.160;20.802;2024-03-07T05:47:14;100292.58;;;1.38;82.92
59315;BME280;46521;50.160;20.802;2024-03-07T05:57:15;100303.83;;;1.39;83.31
59315;BME280;46521;50.160;20.802;2024-03-07T06:07:17;100305.15;;;1.32;82.48
59315;BME280;46521;50.160;20.802;2024-03-07T06:17:18;100324.22;;;1.32;82.95
59315;BME280;46521;50.160;20.802;2024-03-07T06:27:22;100335.47;;;1.33;82.62
59315;BME280;46521;50.160;20.802;2024-03-07T06:37:38;100331.94;;;1.34;82.48
59315;BME280;46521;50.160;20.802;2024-03-07T06:47:41;100336.97;;;1.37;82.72
59315;BME280;46521;50.160;20.802;2024-03-07T06:57:46;100338.63;;;1.38;82.42
59315;BME280;46521;50.160;20.802;2024-03-07T07:07:47;100341.33;;;1.36;82.25
59315;BME280;46521;50.160;20.802;2024-03-07T07:17:49;100351.66;;;1.38;82.44
59315;BME280;46521;50.160;20.802;2024-03-07T07:27:52;100346.17;;;1.42;82.33
59315;BME280;46521;50.160;20.802;2024-03-07T07:37:54;100345.98;;;1.46;81.81
59315;BME280;46521;50.160;20.802;2024-03-07T07:47:57;100354.27;;;1.38;81.57
59315;BME280;46521;50.160;20.802;2024-03-07T07:58:00;100353.25;;;1.40;81.86
59315;BME280;46521;50.160;20.802;2024-03-07T08:08:07;100348.87;;;1.41;82.29
59315;BME280;46521;50.160;20.802;2024-03-07T08:18:09;100358.47;;;1.40;82.12
59315;BME280;46521;50.160;20.802;2024-03-07T08:28:10;100374.94;;;1.41;81.89
59315;BME280;46521;50.160;20.802;2024-03-07T08:38:12;100380.06;;;1.42;81.95
59315;BME280;46521;50.160;20.802;2024-03-07T08:48:13;100382.75;;;1.41;81.20
59315;BME280;46521;50.160;20.802;2024-03-07T08:58:15;100380.33;;;1.38;81.76
59315;BME280;46521;50.160;20.802;2024-03-07T09:08:17;100383.70;;;1.40;81.62
59315;BME280;46521;50.160;20.802;2024-03-07T09:18:18;100377.63;;;1.39;81.17
59315;BME280;46521;50.160;20.802;2024-03-07T09:28:20;100392.91;;;1.46;81.55
59315;BME280;46521;50.160;20.802;2024-03-07T09:38:22;100394.88;;;1.56;81.00
59315;BME280;46521;50.160;20.802;2024-03-07T09:48:23;100394.70;;;1.59;81.14
59315;BME280;46521;50.160;20.802;2024-03-07T09:58:31;100400.77;;;1.60;80.93
59315;BME280;46521;50.160;20.802;2024-03-07T10:08:34;100419.84;;;1.60;80.69
59315;BME280;46521;50.160;20.802;2024-03-07T10:18:42;100401.41;;;1.64;81.16
59315;BME280;46521;50.160;20.802;2024-03-07T10:28:45;100399.17;;;1.72;81.02
59315;BME280;46521;50.160;20.802;2024-03-07T10:38:47;100407.09;;;1.85;80.79
59315;BME280;46521;50.160;20.802;2024-03-07T10:48:50;100416.69;;;1.98;80.45
59315;BME280;46521;50.160;20.802;2024-03-07T10:59:18;100410.14;;;2.20;80.20
59315;BME280;46521;50.160;20.802;2024-03-07T11:09:20;100410.27;;;2.46;80.16
59315;BME280;46521;50.160;20.802;2024-03-07T11:19:28;100415.22;;;2.78;80.69
59315;BME280;46521;50.160;20.802;2024-03-07T11:39:46;100387.53;;;3.28;80.30
59315;BME280;46521;50.160;20.802;2024-03-07T11:49:48;100382.95;;;3.57;79.70
59315;BME280;46521;50.160;20.802;2024-03-07T11:59:49;100382.67;;;3.99;78.94
59315;BME280;46521;50.160;20.802;2024-03-07T12:09:53;100370.53;;;4.35;79.17
59315;BME280;46521;50.160;20.802;2024-03-07T12:19:57;100371.14;;;4.39;78.71
59315;BME280;46521;50.160;20.802;2024-03-07T12:30:14;100362.11;;;4.67;78.62
59315;BME280;46521;50.160;20.802;2024-03-07T12:40:19;100368.20;;;5.03;78.35
59315;BME280;46521;50.160;20.802;2024-03-07T12:50:21;100368.66;;;4.61;77.28
59315;BME280;46521;50.160;20.802;2024-03-07T13:00:22;100379.22;;;4.36;77.31
59315;BME280;46521;50.160;20.802;2024-03-07T13:10:24;100378.94;;;4.27;77.38
59315;BME280;46521;50.160;20.802;2024-03-07T13:20:25;100385.31;;;4.36;76.95
59315;BME280;46521;50.160;20.802;2024-03-07T13:30:28;100380.79;;;4.38;76.88
59315;BME280;46521;50.160;20.802;2024-03-07T13:40:29;100364.84;;;4.65;77.18
59315;BME280;46521;50.160;20.802;2024-03-07T13:50:33;100370.08;;;4.65;76.25
59315;BME280;46521;50.160;20.802;2024-03-07T14:00:55;100378.97;;;4.51;76.83
59315;BME280;46521;50.160;20.802;2024-03-07T14:11:10;100373.30;;;4.58;75.91
59315;BME280;46521;50.160;20.802;2024-03-07T14:21:46;100365.08;;;4.38;75.84
59315;BME280;46521;50.160;20.802;2024-03-07T14:31:51;100375.93;;;4.21;75.66
59315;BME280;46521;50.160;20.802;2024-03-07T14:41:57;100376.47;;;4.13;75.53
59315;BME280;46521;50.160;20.802;2024-03-07T14:51:59;100372.81;;;4.03;75.50
59315;BME280;46521;50.160;20.802;2024-03-07T15:02:00;100379.98;;;3.88;75.48
59315;BME280;46521;50.160;20.802;2024-03-07T15:12:04;100379.69;;;3.79;75.29
59315;BME280;46521;50.160;20.802;2024-03-07T15:22:08;100373.41;;;3.69;75.29
59315;BME280;46521;50.160;20.802;2024-03-07T15:32:10;100381.67;;;3.63;75.13
59315;BME280;46521;50.160;20.802;2024-03-07T15:42:15;100378.75;;;3.55;74.51
59315;BME280;46521;50.160;20.802;2024-03-07T15:52:16;100375.20;;;3.56;75.10
59315;BME280;46521;50.160;20.802;2024-03-07T16:02:19;100382.92;;;3.45;75.32
59315;BME280;46521;50.160;20.802;2024-03-07T16:12:22;100387.53;;;3.28;75.22
59315;BME280;46521;50.160;20.802;2024-03-07T16:22:24;100399.10;;;3.11;75.31
59315;BME280;46521;50.160;20.802;2024-03-07T16:32:25;100413.59;;;3.02;75.16
59315;BME280;46521;50.160;20.802;2024-03-07T16:42:28;100418.50;;;2.94;75.14
59315;BME280;46521;50.160;20.802;2024-03-07T16:52:29;100428.33;;;2.91;75.27
59315;BME280;46521;50.160;20.802;2024-03-07T17:02:30;100447.93;;;2.83;74.92
59315;BME280;46521;50.160;20.802;2024-03-07T17:12:32;100438.36;;;2.69;74.57
59315;BME280;46521;50.160;20.802;2024-03-07T17:22:33;100451.47;;;2.55;74.55
59315;BME280;46521;50.160;20.802;2024-03-07T17:32:35;100449.43;;;2.46;74.64
59315;BME280;46521;50.160;20.802;2024-03-07T17:42:39;100456.63;;;2.42;74.77
59315;BME280;46521;50.160;20.802;2024-03-07T17:52:40;100454.30;;;2.38;74.43
59315;BME280;46521;50.160;20.802;2024-03-07T18:02:43;100461.40;;;2.36;74.41
59315;BME280;46521;50.160;20.802;2024-03-07T18:12:50;100457.67;;;2.25;74.59
59315;BME280;46521;50.160;20.802;2024-03-07T18:23:00;100462.89;;;2.25;74.21
59315;BME280;46521;50.160;20.802;2024-03-07T18:33:02;100479.50;;;2.24;74.31
59315;BME280;46521;50.160;20.802;2024-03-07T18:43:09;100488.26;;;2.09;74.09
59315;BME280;46521;50.160;20.802;2024-03-07T18:53:12;100485.47;;;2.12;74.24
59315;BME280;46521;50.160;20.802;2024-03-07T19:03:15;100481.35;;;2.08;74.15
59315;BME280;46521;50.160;20.802;2024-03-07T19:13:18;100486.57;;;2.08;74.15
59315;BME280;46521;50.160;20.802;2024-03-07T19:23:23;100486.48;;;2.09;73.81
59315;BME280;46521;50.160;20.802;2024-03-07T19:33:25;100491.80;;;2.08;73.84
59315;BME280;46521;50.160;20.802;2024-03-07T19:43:27;100489.92;;;2.10;74.27
59315;BME280;46521;50.160;20.802;2024-03-07T19:53:28;100482.86;;;2.12;74.04
59315;BME280;46521;50.160;20.802;2024-03-07T20:03:31;100474.36;;;2.08;74.30
59315;BME280;46521;50.160;20.802;2024-03-07T20:13:34;100480.25;;;2.12;74.15
59315;BME280;46521;50.160;20.802;2024-03-07T20:23:40;100472.52;;;2.10;73.82
59315;BME280;46521;50.160;20.802;2024-03-07T20:33:42;100480.25;;;2.12;74.42
59315;BME280;46521;50.160;20.802;2024-03-07T20:43:44;100472.88;;;2.04;73.37
59315;BME280;46521;50.160;20.802;2024-03-07T20:53:47;100477.42;;;2.01;73.54
59315;BME280;46521;50.160;20.802;2024-03-07T21:03:52;100463.64;;;1.98;73.24
59315;BME280;46521;50.160;20.802;2024-03-07T21:13:55;100464.02;;;1.92;72.90
59315;BME280;46521;50.160;20.802;2024-03-07T21:23:57;100463.28;;;1.90;72.79
59315;BME280;46521;50.160;20.802;2024-03-07T21:33:58;100458.06;;;1.90;72.45
59315;BME280;46521;50.160;20.802;2024-03-07T21:44:00;100454.34;;;1.94;72.67
59315;BME280;46521;50.160;20.802;2024-03-07T21:54:01;100451.73;;;1.94;72.47
59315;BME280;46521;50.160;20.802;2024-03-07T22:04:02;100449.67;;;2.00;73.00
59315;BME280;46521;50.160;20.802;2024-03-07T22:14:06;100435.04;;;1.97;73.39
59315;BME280;46521;50.160;20.802;2024-03-07T22:24:07;100437.74;;;1.95;73.54
59315;BME280;46521;50.160;20.802;2024-03-07T22:34:13;100437.65;;;1.97;73.50
59315;BME280;46521;50.160;20.802;2024-03-07T22:44:17;100432.15;;;2.02;73.22
59315;BME280;46521;50.160;20.802;2024-03-07T22:54:18;100420.70;;;2.04;73.16
59315;BME280;46521;50.160;20.802;2024-03-07T23:04:20;100429.73;;;1.98;73.68
59315;BME280;46521;50.160;20.802;2024-03-07T23:14:26;100425.65;;;1.94;73.38
59315;BME280;46521;50.160;20.802;2024-03-07T23:24:29;100423.50;;;1.87;73.47
59315;BME280;46521;50.160;20.802;2024-03-07T23:34:31;100424.42;;;1.86;72.91
59315;BME280;46521;50.160;20.802;2024-03-07T23:44:32;100423.20;;;1.77;72.85
59315;BME280;46521;50.160;20.802;2024-03-07T23:54:33;100421.63;;;1.74;73.50
